Terminal Aerodrome Forecast
Issued by NWS

Current Version | Previous Version | Text Only | Print | Product List | Glossary Off
Versions: 1 2 3 4 5 6 7 8 9 10 11 12 13 14

000
FTUS44 KSJT 012300
TAFBBD
TAF
KBBD 012320Z 0200/0224 15011KT P6SM SKC
     FM021100 16010KT P6SM BKN015
     FM021400 15010KT P6SM SKC=

USA.gov is the U.S. government's official web portal to all federal, state and local government web resources and services.